Time;durP1;ratioP1;P1;durP2;ratioP2;P2;SDS_P1;SDS_P2;PMS_P1;PMS_P2;Temp;Humidity;BMP_temperature;BMP_pressure;BME280_temperature;BME280_humidity;BME280_pressure;Samples;Min_cycle;Max_cycle;Signal;HPM_P1;HPM_P2
2023/08/16 00:05:03;;;;;;;19.00;17.80;;;23.20;99.90;;;;;;4919299;28;20225;-44
2023/08/16 00:07:28;;;;;;;19.40;18.10;;;23.20;99.90;;;;;;5029284;28;20523;-42
2023/08/16 00:13:10;;;;;;;19.63;18.33;;;23.10;99.90;;;;;;4914712;29;20189;-48
2023/08/16 00:15:36;;;;;;;20.00;18.70;;;23.10;99.90;;;;;;5018325;28;21220;-43
2023/08/16 00:18:01;;;;;;;19.37;18.00;;;23.00;99.90;;;;;;5038929;28;20186;-45
2023/08/16 00:20:27;;;;;;;18.17;16.97;;;23.00;99.90;;;;;;5038919;28;20629;-43
2023/08/16 00:22:53;;;;;;;20.10;18.80;;;23.00;99.90;;;;;;5038850;28;20608;-45
2023/08/16 00:25:19;;;;;;;19.43;18.03;;;22.90;99.90;;;;;;5018711;28;20240;-44
2023/08/16 00:27:44;;;;;;;19.93;18.23;;;22.90;99.90;;;;;;5038550;28;21052;-47
2023/08/16 00:30:11;;;;;;;21.30;19.60;;;22.90;99.90;;;;;;5038387;28;20189;-46
2023/08/16 00:32:37;;;;;;;20.33;18.90;;;22.90;99.90;;;;;;5037655;28;20193;-42
2023/08/16 00:35:04;;;;;;;20.70;19.20;;;22.90;99.90;;;;;;5039072;28;20443;-46
2023/08/16 00:37:29;;;;;;;19.60;18.20;;;22.90;99.90;;;;;;5036745;28;20942;-43
2023/08/16 00:39:56;;;;;;;20.07;18.67;;;22.90;99.90;;;;;;5038657;28;20446;-47
2023/08/16 00:42:22;;;;;;;18.83;17.43;;;22.80;99.90;;;;;;5038713;28;20605;-48
2023/08/16 00:44:47;;;;;;;19.17;17.90;;;22.70;99.90;;;;;;5038747;28;20555;-46
2023/08/16 00:47:13;;;;;;;19.70;18.40;;;22.70;99.90;;;;;;5042192;28;20193;-45
2023/08/16 00:49:40;;;;;;;19.67;18.17;;;22.70;99.90;;;;;;5041831;28;20182;-45
2023/08/16 00:52:06;;;;;;;19.83;18.53;;;22.70;99.90;;;;;;5043280;28;21045;-48
2023/08/16 00:54:32;;;;;;;20.73;19.10;;;22.60;99.90;;;;;;5040895;28;20497;-42
2023/08/16 00:56:59;;;;;;;20.50;19.10;;;22.60;99.90;;;;;;5041595;28;20424;-45
2023/08/16 00:59:26;;;;;;;19.23;17.93;;;22.60;99.90;;;;;;5042103;28;20648;-43
2023/08/16 01:01:52;;;;;;;19.33;17.93;;;22.60;99.90;;;;;;5041501;28;20436;-43
2023/08/16 01:04:19;;;;;;;20.20;18.80;;;22.60;99.90;;;;;;5040963;28;21004;-42
2023/08/16 01:06:44;;;;;;;19.40;18.10;;;22.70;99.90;;;;;;5041370;28;20273;-46
2023/08/16 01:09:10;;;;;;;19.47;18.17;;;22.70;99.90;;;;;;5039555;28;20436;-41
2023/08/16 01:11:49;;;;;;;20.13;18.83;;;22.70;99.90;;;;;;5043096;28;20178;-42
2023/08/16 01:14:22;;;;;;;19.87;18.57;;;22.60;99.90;;;;;;5039075;28;20439;-51
2023/08/16 01:16:50;;;;;;;19.43;18.10;;;22.60;99.90;;;;;;5041365;28;20432;-52
2023/08/16 01:19:33;;;;;;;18.90;17.60;;;22.60;99.90;;;;;;5040251;28;20440;-50
2023/08/16 01:22:42;;;;;;;20.03;18.67;;;22.50;99.90;;;;;;5025179;28;20440;-51
2023/08/16 01:25:21;;;;;;;18.57;17.27;;;22.50;99.90;;;;;;5041190;28;21740;-52
2023/08/16 01:27:48;;;;;;;18.40;17.20;;;22.50;99.90;;;;;;5039783;28;20788;-52
2023/08/16 01:30:14;;;;;;;17.93;16.73;;;22.40;99.90;;;;;;5041673;28;20507;-49
2023/08/16 01:32:40;;;;;;;20.00;18.37;;;22.50;99.90;;;;;;5041723;28;20420;-49
2023/08/16 01:35:05;;;;;;;19.70;18.40;;;22.50;99.90;;;;;;5041773;28;20194;-50
2023/08/16 01:37:31;;;;;;;19.57;18.30;;;22.50;99.90;;;;;;5039716;28;20432;-54
2023/08/16 01:40:01;;;;;;;19.70;18.40;;;22.50;99.90;;;;;;5041308;28;20194;-51
2023/08/16 01:42:29;;;;;;;19.43;17.97;;;22.50;99.90;;;;;;5040261;28;20186;-52
2023/08/16 01:44:59;;;;;;;20.27;18.90;;;22.50;99.90;;;;;;5041666;28;20475;-52
2023/08/16 01:47:26;;;;;;;19.83;18.33;;;22.50;99.90;;;;;;5039995;28;21405;-51
2023/08/16 01:49:52;;;;;;;20.47;18.83;;;22.50;99.90;;;;;;5039528;28;20448;-45
2023/08/16 01:52:18;;;;;;;18.80;17.60;;;22.40;99.90;;;;;;5042397;28;20412;-44
2023/08/16 01:54:44;;;;;;;20.10;18.40;;;22.50;99.90;;;;;;5040291;28;20443;-45
2023/08/16 01:57:09;;;;;;;20.10;18.80;;;22.50;99.90;;;;;;5039546;28;20208;-47
2023/08/16 01:59:35;;;;;;;20.77;19.30;;;22.50;99.90;;;;;;5040573;28;20193;-44
2023/08/16 02:02:00;;;;;;;18.93;17.57;;;22.50;99.90;;;;;;5042482;28;20174;-45
2023/08/16 02:04:26;;;;;;;19.63;18.23;;;22.50;99.90;;;;;;5040560;28;20460;-44
2023/08/16 02:06:52;;;;;;;19.10;17.80;;;22.60;99.90;;;;;;5039467;28;20186;-45
2023/08/16 02:09:19;;;;;;;20.00;18.50;;;22.60;99.90;;;;;;5036473;28;20208;-42
2023/08/16 02:11:44;;;;;;;19.40;18.07;;;22.70;99.90;;;;;;5038657;28;20440;-45
2023/08/16 02:14:10;;;;;;;19.63;18.23;;;22.70;99.90;;;;;;5041395;28;21137;-42
2023/08/16 02:16:36;;;;;;;20.00;18.73;;;22.80;99.90;;;;;;5040866;28;20178;-43
2023/08/16 02:19:01;;;;;;;19.40;18.07;;;22.70;99.90;;;;;;5041467;28;20186;-42
2023/08/16 02:21:27;;;;;;;19.87;18.50;;;22.80;99.90;;;;;;5042185;28;20240;-42
2023/08/16 02:23:53;;;;;;;19.50;18.20;;;22.80;99.90;;;;;;5040036;28;20747;-42
2023/08/16 02:26:18;;;;;;;20.43;19.03;;;22.80;99.90;;;;;;5040797;28;20290;-42
2023/08/16 02:28:44;;;;;;;21.27;19.60;;;22.80;99.90;;;;;;5040715;28;20628;-45
2023/08/16 02:31:09;;;;;;;19.70;18.40;;;22.80;99.90;;;;;;5041849;28;20193;-45
2023/08/16 02:33:35;;;;;;;18.97;17.63;;;22.80;99.90;;;;;;5041407;28;20274;-42
2023/08/16 02:36:01;;;;;;;19.40;18.10;;;22.80;99.90;;;;;;5040463;28;20250;-43
2023/08/16 02:38:28;;;;;;;17.50;16.30;;;22.80;99.90;;;;;;5039456;28;20432;-47
2023/08/16 02:40:54;;;;;;;19.10;17.70;;;22.80;99.90;;;;;;5039847;28;20166;-47
2023/08/16 02:43:20;;;;;;;19.70;18.30;;;22.80;99.90;;;;;;5039803;28;20809;-46
2023/08/16 02:45:45;;;;;;;17.87;16.77;;;22.80;99.90;;;;;;5039746;28;20424;-44
2023/08/16 02:48:11;;;;;;;20.17;18.57;;;22.80;99.90;;;;;;5036870;28;20197;-47
2023/08/16 02:50:37;;;;;;;17.60;16.50;;;22.80;99.90;;;;;;5040891;28;20284;-43
2023/08/16 02:53:03;;;;;;;16.70;15.50;;;22.80;99.90;;;;;;5039131;28;20837;-46
2023/08/16 02:55:29;;;;;;;17.10;16.10;;;22.80;99.90;;;;;;5039532;28;20194;-46
2023/08/16 02:57:55;;;;;;;16.40;15.50;;;22.80;99.90;;;;;;5039558;28;20640;-43
2023/08/16 03:00:21;;;;;;;16.80;15.70;;;22.80;99.90;;;;;;5040604;28;20429;-44
2023/08/16 03:02:46;;;;;;;15.30;14.40;;;22.80;99.90;;;;;;5038376;28;20197;-43
2023/08/16 03:05:12;;;;;;;14.67;13.87;;;22.70;99.90;;;;;;5040787;28;20271;-46
2023/08/16 03:07:39;;;;;;;15.13;14.23;;;22.70;99.90;;;;;;5039256;28;20177;-47
2023/08/16 03:10:06;;;;;;;15.10;14.10;;;22.70;99.90;;;;;;5040656;28;20296;-42
2023/08/16 03:12:31;;;;;;;15.33;14.40;;;22.70;99.90;;;;;;5038159;28;20432;-45
2023/08/16 03:14:57;;;;;;;14.80;13.90;;;22.70;99.90;;;;;;5039730;28;20450;-46
2023/08/16 03:17:23;;;;;;;16.00;15.00;;;22.70;99.90;;;;;;5039183;28;20201;-45
2023/08/16 03:19:49;;;;;;;13.97;13.10;;;22.70;99.90;;;;;;5040530;28;20196;-45
2023/08/16 03:22:15;;;;;;;16.10;15.07;;;22.70;99.90;;;;;;5039712;28;20894;-42
2023/08/16 03:24:40;;;;;;;15.43;14.43;;;22.70;99.90;;;;;;5040240;28;20236;-44
2023/08/16 03:27:06;;;;;;;15.27;14.37;;;22.70;99.90;;;;;;5039214;28;20189;-47
2023/08/16 03:29:31;;;;;;;16.53;15.47;;;22.70;99.90;;;;;;5039291;28;20189;-44
2023/08/16 03:31:57;;;;;;;16.20;15.10;;;22.70;99.90;;;;;;5040841;28;20182;-47
2023/08/16 03:34:24;;;;;;;16.10;15.10;;;22.70;99.90;;;;;;5039638;28;20186;-46
2023/08/16 03:36:49;;;;;;;14.17;13.27;;;22.70;99.90;;;;;;5038967;28;20281;-47
2023/08/16 03:39:15;;;;;;;15.17;13.97;;;22.70;99.90;;;;;;5040032;28;20440;-43
2023/08/16 03:41:41;;;;;;;15.50;14.60;;;22.70;99.90;;;;;;5039704;28;21033;-47
2023/08/16 03:44:06;;;;;;;15.67;14.67;;;22.70;99.90;;;;;;5038501;28;20217;-42
2023/08/16 03:46:33;;;;;;;14.87;13.97;;;22.70;99.90;;;;;;5039398;28;20190;-42
2023/08/16 03:48:59;;;;;;;14.70;13.90;;;22.70;99.90;;;;;;5039953;28;20174;-43
2023/08/16 03:51:24;;;;;;;16.60;15.60;;;22.60;99.90;;;;;;5039755;28;20980;-44
2023/08/16 03:53:50;;;;;;;15.57;14.57;;;22.60;99.90;;;;;;5038898;28;20213;-46
2023/08/16 03:56:16;;;;;;;15.70;14.80;;;22.60;99.90;;;;;;5040383;28;20188;-45
2023/08/16 03:58:41;;;;;;;15.60;14.60;;;22.60;99.90;;;;;;5038298;28;20204;-42
2023/08/16 04:01:07;;;;;;;14.60;13.70;;;22.70;99.90;;;;;;5039607;28;20276;-46
2023/08/16 04:03:32;;;;;;;15.63;14.60;;;22.70;99.90;;;;;;5038723;28;20268;-49
2023/08/16 04:05:58;;;;;;;15.23;14.30;;;22.70;99.90;;;;;;5038959;28;20210;-45
2023/08/16 04:08:24;;;;;;;14.77;13.87;;;22.70;99.90;;;;;;5037038;28;21538;-44
2023/08/16 04:10:49;;;;;;;14.67;13.77;;;22.70;99.90;;;;;;5037719;28;20189;-45
2023/08/16 04:13:15;;;;;;;15.07;14.23;;;22.70;99.90;;;;;;5038800;28;20264;-42
2023/08/16 04:15:41;;;;;;;14.50;13.70;;;22.70;99.90;;;;;;5039796;28;20193;-41
2023/08/16 04:18:07;;;;;;;16.17;15.17;;;22.70;99.90;;;;;;5037601;28;20589;-43
2023/08/16 04:20:32;;;;;;;14.70;13.80;;;22.70;99.90;;;;;;5039542;28;20446;-45
2023/08/16 04:22:59;;;;;;;15.30;14.40;;;22.70;99.90;;;;;;5039292;28;20194;-41
2023/08/16 04:25:24;;;;;;;15.57;14.67;;;22.70;99.90;;;;;;5040989;28;20760;-47
2023/08/16 04:27:50;;;;;;;15.53;14.50;;;22.60;99.90;;;;;;5042776;28;20440;-43
2023/08/16 04:30:16;;;;;;;15.03;14.13;;;22.60;99.90;;;;;;5039277;28;20846;-44
2023/08/16 04:32:41;;;;;;;14.57;13.67;;;22.60;99.90;;;;;;5043571;28;20291;-46
2023/08/16 04:35:08;;;;;;;16.67;15.67;;;22.60;99.90;;;;;;5042526;28;20198;-42
2023/08/16 04:37:34;;;;;;;17.63;16.53;;;22.50;99.90;;;;;;5042527;28;20190;-45
2023/08/16 04:39:59;;;;;;;16.13;15.13;;;22.50;99.90;;;;;;5041341;28;20486;-42
2023/08/16 04:42:25;;;;;;;15.83;14.87;;;22.60;99.90;;;;;;5043555;28;20222;-45
2023/08/16 04:44:51;;;;;;;16.63;15.43;;;22.60;99.90;;;;;;5043825;28;20252;-43
2023/08/16 04:47:17;;;;;;;16.30;15.30;;;22.50;99.90;;;;;;5044105;28;20460;-43
2023/08/16 04:49:43;;;;;;;16.13;15.13;;;22.60;99.90;;;;;;5043203;28;20294;-42
2023/08/16 04:52:08;;;;;;;14.83;13.93;;;22.60;99.90;;;;;;5042206;28;20267;-53
2023/08/16 04:54:34;;;;;;;15.27;14.43;;;22.50;99.90;;;;;;5043525;28;20443;-53
2023/08/16 04:57:00;;;;;;;15.27;14.27;;;22.60;99.90;;;;;;5043722;28;20193;-50
2023/08/16 04:59:25;;;;;;;15.97;14.97;;;22.60;99.90;;;;;;5043403;28;20201;-53
2023/08/16 05:01:51;;;;;;;15.63;14.40;;;22.60;99.90;;;;;;5042546;28;20209;-45
2023/08/16 05:04:17;;;;;;;14.43;13.57;;;22.70;99.90;;;;;;5043264;28;20210;-52
2023/08/16 05:06:42;;;;;;;16.50;15.50;;;22.70;99.90;;;;;;5043635;28;20189;-55
2023/08/16 05:09:08;;;;;;;15.80;14.80;;;22.70;99.90;;;;;;5043228;28;20640;-51
2023/08/16 05:11:34;;;;;;;16.87;15.80;;;22.70;99.90;;;;;;5042967;28;20276;-51
2023/08/16 05:13:59;;;;;;;15.33;14.43;;;22.80;99.90;;;;;;5043598;28;20193;-48
2023/08/16 05:16:25;;;;;;;15.40;14.50;;;22.80;99.90;;;;;;5042664;28;20194;-51
2023/08/16 05:18:54;;;;;;;15.23;14.33;;;22.80;99.90;;;;;;5043346;28;20296;-51
2023/08/16 05:21:20;;;;;;;15.30;14.30;;;22.90;99.90;;;;;;5041522;28;20563;-51
2023/08/16 05:23:45;;;;;;;14.77;13.87;;;22.90;99.90;;;;;;5042357;28;20468;-51
2023/08/16 05:26:11;;;;;;;16.30;15.40;;;23.00;99.90;;;;;;5042936;28;20684;-43
2023/08/16 05:28:37;;;;;;;15.70;14.80;;;23.00;99.90;;;;;;5042798;28;20193;-43
2023/08/16 05:31:12;;;;;;;14.87;13.83;;;23.00;99.90;;;;;;5042143;28;20586;-44
2023/08/16 05:33:39;;;;;;;14.80;13.90;;;23.10;99.90;;;;;;5025073;28;20185;-41
2023/08/16 05:36:06;;;;;;;16.13;15.03;;;23.10;99.90;;;;;;5042648;28;20451;-46
2023/08/16 05:38:32;;;;;;;15.97;14.93;;;23.10;99.90;;;;;;5042772;28;20432;-46
2023/08/16 05:40:59;;;;;;;15.40;14.50;;;23.10;99.90;;;;;;5042358;28;20455;-45
2023/08/16 05:43:24;;;;;;;16.07;15.03;;;23.10;99.90;;;;;;5042966;28;20521;-44
2023/08/16 05:45:51;;;;;;;16.07;14.90;;;23.10;99.90;;;;;;5042920;28;20532;-44
2023/08/16 05:48:17;;;;;;;16.63;15.63;;;23.00;99.90;;;;;;5043000;28;20189;-43
2023/08/16 05:50:43;;;;;;;16.43;15.33;;;23.10;99.90;;;;;;5041892;28;20440;-42
2023/08/16 05:53:09;;;;;;;15.70;14.70;;;23.10;99.90;;;;;;5042056;28;20196;-52
2023/08/16 05:55:34;;;;;;;16.13;15.10;;;23.10;99.90;;;;;;5041638;28;20467;-52
2023/08/16 05:58:00;;;;;;;15.30;14.40;;;23.20;99.90;;;;;;5042388;28;20181;-50
2023/08/16 06:00:26;;;;;;;15.20;14.30;;;23.20;99.90;;;;;;5042269;28;21011;-49
2023/08/16 06:02:52;;;;;;;15.93;14.83;;;23.20;99.90;;;;;;5042160;28;20420;-53
2023/08/16 06:05:18;;;;;;;16.10;15.00;;;23.30;99.90;;;;;;5041459;28;20212;-49
2023/08/16 06:07:44;;;;;;;16.73;15.73;;;23.20;99.90;;;;;;5042153;28;20505;-54
2023/08/16 06:10:10;;;;;;;17.17;16.13;;;23.30;99.90;;;;;;5039562;28;20440;-55
2023/08/16 06:12:36;;;;;;;16.77;15.67;;;23.30;99.90;;;;;;5041321;28;20444;-53
2023/08/16 06:15:02;;;;;;;17.80;16.70;;;23.30;99.90;;;;;;5041932;28;20182;-52
2023/08/16 06:17:28;;;;;;;16.23;15.23;;;23.30;99.90;;;;;;5041361;28;20700;-52
2023/08/16 06:19:54;;;;;;;17.00;16.00;;;23.30;99.90;;;;;;5041784;28;20563;-52
2023/08/16 06:22:19;;;;;;;16.27;15.13;;;23.40;99.90;;;;;;5041384;28;20204;-50
2023/08/16 06:24:45;;;;;;;17.50;16.40;;;23.40;99.90;;;;;;5041702;28;20238;-52
2023/08/16 06:27:10;;;;;;;17.10;15.80;;;23.40;99.90;;;;;;5041351;28;20656;-52
2023/08/16 06:29:36;;;;;;;17.40;16.20;;;23.40;99.90;;;;;;5023247;28;20882;-51
2023/08/16 06:32:03;;;;;;;16.50;15.50;;;23.40;99.90;;;;;;5041860;28;20234;-54
2023/08/16 06:34:29;;;;;;;18.03;16.83;;;23.40;99.90;;;;;;5041451;28;20493;-50
2023/08/16 06:36:54;;;;;;;16.77;15.73;;;23.40;99.90;;;;;;5041005;28;20448;-53
2023/08/16 06:39:20;;;;;;;17.00;16.00;;;23.40;99.90;;;;;;5041129;28;20550;-50
2023/08/16 06:41:46;;;;;;;17.27;16.27;;;23.30;99.90;;;;;;5023660;28;20267;-52
2023/08/16 06:44:11;;;;;;;18.10;16.90;;;23.40;99.90;;;;;;5040626;28;20206;-51
2023/08/16 06:46:37;;;;;;;17.47;16.37;;;23.40;99.90;;;;;;5040459;28;20193;-49
2023/08/16 06:49:03;;;;;;;16.80;15.70;;;23.30;99.90;;;;;;5040527;28;20177;-53
2023/08/16 06:51:29;;;;;;;17.53;16.33;;;23.30;99.90;;;;;;5013871;28;20205;-51
2023/08/16 06:53:55;;;;;;;17.13;16.03;;;23.30;99.90;;;;;;5041218;28;20479;-54
2023/08/16 06:56:20;;;;;;;16.90;15.60;;;23.30;99.90;;;;;;5041301;28;20189;-49
2023/08/16 06:58:46;;;;;;;16.10;15.20;;;23.30;99.90;;;;;;5040955;28;20236;-50
2023/08/16 07:01:11;;;;;;;16.27;15.27;;;23.40;99.90;;;;;;5041150;28;20186;-48
2023/08/16 07:03:37;;;;;;;15.63;14.53;;;23.40;99.90;;;;;;5041046;28;20186;-49
2023/08/16 07:06:03;;;;;;;16.60;15.47;;;23.50;99.90;;;;;;5041181;28;20212;-53
2023/08/16 07:08:29;;;;;;;16.60;15.50;;;23.50;99.90;;;;;;5041097;28;20192;-52
2023/08/16 07:10:54;;;;;;;16.80;15.80;;;23.60;99.90;;;;;;5040218;28;20435;-52
2023/08/16 07:13:20;;;;;;;16.20;15.20;;;23.70;99.90;;;;;;5041236;28;20228;-54
2023/08/16 07:15:46;;;;;;;16.47;15.27;;;23.80;99.90;;;;;;5040813;28;20221;-54
2023/08/16 07:18:12;;;;;;;16.07;15.10;;;23.80;99.90;;;;;;5041086;28;20189;-51
2023/08/16 07:20:39;;;;;;;18.13;17.03;;;23.80;99.90;;;;;;5040606;28;20447;-52
2023/08/16 07:23:06;;;;;;;18.23;16.97;;;23.80;99.90;;;;;;5040249;28;20894;-49
2023/08/16 07:25:32;;;;;;;16.07;15.07;;;23.80;99.90;;;;;;5040608;28;20483;-56
2023/08/16 07:27:57;;;;;;;17.47;16.30;;;23.80;99.90;;;;;;5040667;28;20906;-49
2023/08/16 07:30:23;;;;;;;16.60;15.60;;;23.80;99.90;;;;;;5039636;28;20986;-49
2023/08/16 07:32:49;;;;;;;17.73;16.63;;;23.90;99.90;;;;;;5040454;28;20653;-53
2023/08/16 07:35:14;;;;;;;17.57;16.37;;;24.00;99.90;;;;;;5040558;28;20193;-56
2023/08/16 07:37:40;;;;;;;18.10;16.90;;;23.90;99.90;;;;;;5040790;28;20190;-55
2023/08/16 07:40:06;;;;;;;17.30;16.27;;;23.90;99.90;;;;;;5039515;28;20184;-54
2023/08/16 07:42:32;;;;;;;18.37;17.07;;;23.90;99.90;;;;;;5040441;28;20269;-51
2023/08/16 07:44:59;;;;;;;18.57;17.47;;;23.80;99.90;;;;;;5040260;28;20976;-51
2023/08/16 07:47:25;;;;;;;17.57;16.47;;;23.70;99.90;;;;;;5039748;28;20529;-53
2023/08/16 07:49:50;;;;;;;18.43;17.07;;;23.60;99.90;;;;;;5039335;28;20471;-54
2023/08/16 07:52:16;;;;;;;19.13;17.53;;;23.60;99.90;;;;;;5039526;28;20930;-55
2023/08/16 07:54:42;;;;;;;19.40;17.80;;;23.50;99.90;;;;;;5037706;28;20667;-53
2023/08/16 07:57:08;;;;;;;18.30;17.20;;;23.50;99.90;;;;;;5039529;28;20193;-53
2023/08/16 07:59:33;;;;;;;18.80;17.60;;;23.50;99.90;;;;;;5039954;28;21146;-53
2023/08/16 08:01:59;;;;;;;18.77;17.47;;;23.60;99.90;;;;;;5040273;28;20194;-50
2023/08/16 08:04:25;;;;;;;19.50;18.20;;;23.40;99.90;;;;;;5039181;28;20201;-50
2023/08/16 08:06:51;;;;;;;20.60;19.27;;;23.20;99.90;;;;;;5039137;28;20463;-49
2023/08/16 08:09:17;;;;;;;20.03;18.73;;;23.10;99.90;;;;;;5040247;28;20166;-54
2023/08/16 08:11:43;;;;;;;18.70;17.27;;;23.10;99.90;;;;;;5039846;28;20416;-49
2023/08/16 08:14:08;;;;;;;19.23;18.03;;;23.10;99.90;;;;;;5040118;28;20774;-50
2023/08/16 08:16:34;;;;;;;20.23;18.57;;;23.20;99.90;;;;;;5039391;28;20194;-52
2023/08/16 08:19:00;;;;;;;17.33;16.17;;;23.40;99.90;;;;;;5022514;28;20232;-54
2023/08/16 08:21:26;;;;;;;18.63;17.43;;;23.60;99.90;;;;;;5039739;28;20196;-49
2023/08/16 08:23:51;;;;;;;18.40;17.00;;;23.80;99.90;;;;;;5040063;28;20261;-54
2023/08/16 08:26:17;;;;;;;18.90;17.70;;;24.00;99.90;;;;;;5039762;28;20190;-51
2023/08/16 08:28:43;;;;;;;17.07;15.97;;;24.10;99.90;;;;;;5039914;28;20587;-53
2023/08/16 08:31:08;;;;;;;19.50;18.20;;;24.20;99.90;;;;;;5040197;28;20571;-53
2023/08/16 08:33:34;;;;;;;20.00;18.43;;;24.10;99.90;;;;;;5039006;28;20420;-52
2023/08/16 08:36:00;;;;;;;19.37;17.97;;;24.20;99.90;;;;;;5040256;28;20269;-50
2023/08/16 08:38:26;;;;;;;18.63;17.43;;;24.30;99.90;;;;;;5040009;28;20404;-54
2023/08/16 08:40:59;;;;;;;18.47;17.23;;;24.30;99.90;;;;;;5039512;28;20300;-53
2023/08/16 08:43:34;;;;;;;18.10;16.90;;;24.50;99.90;;;;;;5038421;28;20220;-55
2023/08/16 08:46:00;;;;;;;19.43;17.40;;;24.80;99.90;;;;;;5039058;28;20439;-54
2023/08/16 08:48:29;;;;;;;19.20;18.00;;;25.20;99.90;;;;;;5038976;28;20460;-51
2023/08/16 08:50:55;;;;;;;17.67;16.57;;;25.70;99.90;;;;;;5039440;28;20436;-52
2023/08/16 08:53:22;;;;;;;18.87;17.60;;;26.20;99.90;;;;;;5038027;28;20440;-55
2023/08/16 08:55:52;;;;;;;19.23;17.93;;;26.70;99.90;;;;;;5038429;28;20471;-51
2023/08/16 08:58:19;;;;;;;18.83;17.53;;;26.90;99.90;;;;;;5038671;28;20417;-49
2023/08/16 09:00:46;;;;;;;17.40;16.20;;;26.80;99.90;;;;;;5034498;28;20437;-51
2023/08/16 09:03:12;;;;;;;18.40;17.20;;;26.90;99.90;;;;;;5036909;28;20543;-52
2023/08/16 09:05:39;;;;;;;20.07;18.77;;;26.90;99.90;;;;;;5038981;28;20460;-53
2023/08/16 09:08:06;;;;;;;18.93;17.83;;;27.00;99.90;;;;;;5042167;28;20981;-51
2023/08/16 09:10:36;;;;;;;17.80;16.70;;;27.20;99.90;;;;;;5012175;28;20432;-55
2023/08/16 09:13:05;;;;;;;20.20;18.97;;;27.20;99.90;;;;;;5023618;28;20968;-55
2023/08/16 09:15:30;;;;;;;19.40;18.17;;;27.30;99.90;;;;;;5042265;28;20573;-53
2023/08/16 09:18:16;;;;;;;19.93;18.63;;;27.40;99.90;;;;;;5041903;28;20424;-53
2023/08/16 09:20:42;;;;;;;19.43;18.30;;;27.40;99.90;;;;;;5042768;28;20189;-55
2023/08/16 09:23:15;;;;;;;19.80;18.67;;;27.40;99.90;;;;;;5041635;28;20482;-50
2023/08/16 09:25:41;;;;;;;19.27;18.07;;;27.40;99.90;;;;;;5042503;28;20472;-50
2023/08/16 09:28:10;;;;;;;19.87;18.67;;;27.40;99.90;;;;;;5042352;28;20405;-49
2023/08/16 09:30:36;;;;;;;20.23;18.97;;;27.40;99.90;;;;;;5042053;28;20181;-53
2023/08/16 09:33:02;;;;;;;19.87;18.57;;;27.20;99.90;;;;;;5042016;28;20432;-54
2023/08/16 09:35:30;;;;;;;19.90;18.60;;;27.30;99.90;;;;;;5042557;28;20486;-56
2023/08/16 09:37:59;;;;;;;20.10;18.90;;;27.10;99.90;;;;;;5042002;28;20416;-54
2023/08/16 09:40:26;;;;;;;20.07;18.90;;;26.90;99.90;;;;;;5041535;28;20439;-52
2023/08/16 09:42:57;;;;;;;18.87;17.67;;;27.00;99.90;;;;;;5042040;28;20432;-49
2023/08/16 09:45:33;;;;;;;20.53;19.23;;;26.90;99.90;;;;;;5041960;28;20521;-54
2023/08/16 09:48:00;;;;;;;18.50;17.40;;;26.90;99.90;;;;;;5041935;28;20416;-50
2023/08/16 09:50:32;;;;;;;19.17;17.97;;;26.90;99.90;;;;;;5041906;28;20419;-54
2023/08/16 09:52:58;;;;;;;19.23;18.00;;;26.80;99.90;;;;;;5040467;28;20439;-51
2023/08/16 09:55:29;;;;;;;19.33;18.13;;;26.80;99.90;;;;;;5041745;28;21629;-53
2023/08/16 09:57:57;;;;;;;18.30;17.10;;;26.80;99.90;;;;;;5041278;28;20427;-52
2023/08/16 10:00:24;;;;;;;19.57;18.37;;;26.50;99.90;;;;;;5041568;28;20428;-50
2023/08/16 10:02:50;;;;;;;18.93;17.80;;;26.40;99.90;;;;;;5040872;28;20558;-53
2023/08/16 10:05:16;;;;;;;19.50;18.30;;;26.30;99.90;;;;;;5020725;28;21282;-53
2023/08/16 10:07:42;;;;;;;18.93;17.73;;;26.30;99.90;;;;;;5040023;28;20521;-51
2023/08/16 10:10:09;;;;;;;17.93;16.83;;;26.40;99.90;;;;;;5040816;28;20276;-50
2023/08/16 10:12:36;;;;;;;17.33;16.20;;;26.40;99.90;;;;;;5040997;28;20443;-53
2023/08/16 10:15:03;;;;;;;18.40;17.40;;;26.40;99.90;;;;;;5040758;28;20417;-53
2023/08/16 10:17:28;;;;;;;19.20;17.80;;;26.30;99.90;;;;;;5041598;28;20423;-54
2023/08/16 10:20:02;;;;;;;19.20;18.10;;;26.20;99.90;;;;;;5040191;28;20538;-52
2023/08/16 10:22:35;;;;;;;17.90;16.90;;;26.10;99.90;;;;;;5040028;28;20188;-55
2023/08/16 10:25:12;;;;;;;18.20;17.13;;;26.20;99.90;;;;;;5009572;28;20476;-53
2023/08/16 10:27:38;;;;;;;17.77;16.67;;;26.30;99.90;;;;;;5037999;28;20419;-54
2023/08/16 10:30:08;;;;;;;17.77;16.67;;;26.40;99.90;;;;;;5038800;28;20465;-54
2023/08/16 10:32:40;;;;;;;18.77;17.47;;;26.40;99.90;;;;;;5039154;28;20412;-49
2023/08/16 10:35:07;;;;;;;17.37;16.27;;;26.50;99.90;;;;;;5038837;28;20416;-49
2023/08/16 10:37:33;;;;;;;17.57;16.47;;;26.70;99.90;;;;;;5038563;28;20448;-49
2023/08/16 10:39:59;;;;;;;18.17;17.07;;;26.80;99.90;;;;;;5039098;28;21819;-52
2023/08/16 10:42:27;;;;;;;18.00;16.80;;;26.90;99.90;;;;;;5040229;28;20185;-49
2023/08/16 10:44:53;;;;;;;19.37;18.17;;;27.00;99.90;;;;;;5038988;28;20235;-53
2023/08/16 10:47:29;;;;;;;18.33;17.10;;;27.10;99.90;;;;;;5040387;28;20437;-51
2023/08/16 10:49:55;;;;;;;17.37;16.30;;;27.00;99.90;;;;;;5040680;28;20181;-54
2023/08/16 10:52:30;;;;;;;18.20;17.20;;;26.90;99.90;;;;;;5041290;28;20481;-51
2023/08/16 10:54:58;;;;;;;17.47;16.47;;;26.80;99.90;;;;;;5040373;28;20766;-54
2023/08/16 10:57:25;;;;;;;18.07;17.00;;;26.90;99.90;;;;;;5040831;28;21481;-52
2023/08/16 11:00:05;;;;;;;17.07;16.07;;;26.90;99.90;;;;;;5040916;28;20421;-50
2023/08/16 11:02:32;;;;;;;17.70;16.70;;;27.00;99.90;;;;;;5041044;28;20420;-51
2023/08/16 11:05:01;;;;;;;19.20;18.00;;;27.20;99.90;;;;;;5040846;28;20460;-55
2023/08/16 11:07:28;;;;;;;17.80;16.60;;;27.40;99.90;;;;;;5040415;28;20412;-54
2023/08/16 11:10:01;;;;;;;17.07;15.97;;;27.50;99.90;;;;;;5040987;28;20413;-50
2023/08/16 11:12:30;;;;;;;18.50;17.30;;;27.50;99.90;;;;;;5041247;28;20491;-54
2023/08/16 11:14:57;;;;;;;18.70;17.40;;;27.50;99.90;;;;;;5040612;28;20498;-48
2023/08/16 11:17:28;;;;;;;17.87;16.70;;;27.60;99.90;;;;;;5038258;28;20446;-54
2023/08/16 11:19:54;;;;;;;19.00;17.80;;;27.40;99.90;;;;;;5038990;28;20424;-54
2023/08/16 11:22:21;;;;;;;18.87;17.77;;;27.40;99.90;;;;;;5039323;28;20530;-51
2023/08/16 11:24:47;;;;;;;17.97;16.90;;;27.30;99.90;;;;;;5040056;28;20475;-51
2023/08/16 11:27:18;;;;;;;19.70;18.47;;;27.20;99.90;;;;;;5040461;28;20469;-52
2023/08/16 11:29:48;;;;;;;19.10;17.80;;;26.90;99.90;;;;;;5039623;28;20436;-55
2023/08/16 11:32:14;;;;;;;18.83;17.73;;;26.70;99.90;;;;;;5021864;28;20493;-53
2023/08/16 11:34:40;;;;;;;18.50;17.40;;;26.70;99.90;;;;;;5040107;28;20490;-52
2023/08/16 11:37:06;;;;;;;18.50;17.30;;;26.80;99.90;;;;;;5039677;28;20691;-53
2023/08/16 11:39:31;;;;;;;17.07;16.17;;;27.00;99.90;;;;;;5039264;28;20505;-49
2023/08/16 11:41:57;;;;;;;18.67;17.43;;;27.30;99.90;;;;;;5040502;28;20177;-55
2023/08/16 11:44:24;;;;;;;18.53;17.43;;;27.50;99.90;;;;;;5040257;28;20297;-49
2023/08/16 11:46:51;;;;;;;17.03;16.03;;;27.80;99.90;;;;;;5038996;28;20186;-53
2023/08/16 11:49:23;;;;;;;17.73;16.73;;;28.10;99.90;;;;;;5021961;28;20447;-53
2023/08/16 11:51:49;;;;;;;17.60;16.50;;;28.60;99.90;;;;;;5020972;28;20428;-50
2023/08/16 11:54:22;;;;;;;18.73;17.63;;;29.00;99.40;;;;;;5037809;28;20423;-49
2023/08/16 11:56:48;;;;;;;18.93;17.63;;;29.10;98.70;;;;;;5021181;28;20486;-54
2023/08/16 11:59:25;;;;;;;16.43;15.43;;;29.20;98.50;;;;;;5040122;28;20428;-56
2023/08/16 12:01:51;;;;;;;17.70;16.70;;;29.40;98.50;;;;;;5040160;28;20173;-53
2023/08/16 12:04:17;;;;;;;18.53;17.43;;;29.60;97.10;;;;;;5040880;28;21064;-54
2023/08/16 12:06:47;;;;;;;18.20;17.10;;;29.80;97.20;;;;;;5039265;28;20447;-53
2023/08/16 12:09:15;;;;;;;18.00;17.00;;;30.00;96.70;;;;;;5039283;28;20432;-54
2023/08/16 12:11:41;;;;;;;18.73;17.53;;;30.20;96.10;;;;;;5039341;28;20571;-51
2023/08/16 12:14:07;;;;;;;17.83;16.73;;;29.90;95.80;;;;;;5038822;28;20417;-51
2023/08/16 12:16:32;;;;;;;18.60;17.50;;;29.60;95.80;;;;;;5037807;28;20272;-52
2023/08/16 12:18:58;;;;;;;18.60;17.60;;;29.40;96.40;;;;;;5036616;28;20193;-52
2023/08/16 12:21:24;;;;;;;18.07;17.07;;;29.20;97.00;;;;;;5036989;28;20815;-54
2023/08/16 12:23:51;;;;;;;19.67;18.57;;;29.10;97.70;;;;;;5037940;28;21203;-52
2023/08/16 12:26:17;;;;;;;19.93;18.83;;;28.90;97.60;;;;;;5016150;28;21033;-52
2023/08/16 12:28:43;;;;;;;18.83;17.83;;;28.80;97.90;;;;;;5039861;28;20412;-53
2023/08/16 12:31:10;;;;;;;19.20;17.80;;;28.80;98.10;;;;;;5038361;28;20428;-53
2023/08/16 12:33:36;;;;;;;19.13;18.13;;;29.10;98.20;;;;;;5040142;28;20416;-55